• Join FlightAware (Why Join?)
  • Login
  • US Flag 
12:15AM EDT


 

Airport Tracker/Info


-or-


 

Live Flight TrackerFlight Track Log ✈ N10WN ✈ 16-Nov-2013 ✈ KADS - 00R

Flight Track Log - Related Links

Times and Time Zones

All times are in EST time to prevent confusion due to time zone crossing. See the N10WN flight status page for this flight to view local times or setup timezone preferences in your user account.

Time Position Orientation Groundspeed Altitude Reporting Facility
EST Latitude Longitude Course Direction KTS MPH feet Rate Location/Type
01:13PM 32.9667 -96.8333 157° South 79 91 900  Level Dallas / Fort Worth TRACON
01:14PM 32.9333 -96.8167 157° South 78 90 2,000 780 Climbing Dallas / Fort Worth TRACON
01:15PM 32.9167 -96.8167 180° South 75 86 2,900 420 Climbing Dallas / Fort Worth TRACON
01:16PM 32.9000 -96.8333 220° Southwest 117 135 3,000 480 Climbing Dallas / Fort Worth TRACON
01:17PM 32.8667 -96.8500 203° Southwest 91 105 3,900 540 Climbing Dallas / Fort Worth TRACON
01:18PM 32.8500 -96.8667 220° Southwest 110 127 4,100 60 Climbing Dallas / Fort Worth TRACON
01:19PM 32.8167 -96.8833 203° Southwest 106 122 4,100  Level Dallas / Fort Worth TRACON
01:20PM 32.7833 -96.8833 180° South 121 139 4,100  Level Dallas / Fort Worth TRACON
01:21PM 32.7500 -96.8667 157° South 116 133 4,100  Level Dallas / Fort Worth TRACON
01:22PM 32.7333 -96.8500 140° Southeast 138 159 4,100  Level Dallas / Fort Worth TRACON
01:23PM 32.7000 -96.8167 140° Southeast 137 158 4,100  Level Dallas / Fort Worth TRACON
01:24PM 32.6667 -96.8000 157° South 140 161 4,100 60 Level Dallas / Fort Worth TRACON
01:25PM 32.6333 -96.7667 140° Southeast 135 155 4,300 540 Climbing Dallas / Fort Worth TRACON
01:26PM 32.6244 -96.7531 128° Southeast 124 143 5,000 900 Climbing Fort Worth Center
01:27PM 32.6036 -96.7297 137° Southeast 100 115 5,800 720 Climbing Fort Worth Center
01:28PM 32.5817 -96.7111 144° Southeast 96 110 6,600 720 Climbing Fort Worth Center
01:29PM 32.5586 -96.6897 142° Southeast 99 114 7,400 240 Climbing Fort Worth Center
01:30PM 32.5286 -96.6664 147° Southeast 140 161 7,100 -180 Descending Fort Worth Center
01:31PM 32.4942 -96.6353 143° Southeast 153 176 7,100  Level Fort Worth Center
01:32PM 32.4581 -96.6022 142° Southeast 153 176 7,100  Level Fort Worth Center
01:33PM 32.4244 -96.5725 143° Southeast 151 174 7,100  Level Fort Worth Center
01:34PM 32.3894 -96.5392 141° Southeast 151 174 7,100  Level Fort Worth Center
01:35PM 32.3561 -96.5111 145° Southeast 147 169 7,100  Level Fort Worth Center
01:36PM 32.3194 -96.4781 143° Southeast 152 175 7,100  Level Fort Worth Center
01:37PM 32.2847 -96.4469 143° Southeast 157 181 7,100  Level Fort Worth Center
01:38PM 32.2514 -96.4161 142° Southeast 152 175 7,100  Level Fort Worth Center
01:39PM 32.2175 -96.3853 142° Southeast 151 174 7,100  Level Fort Worth Center
01:40PM 32.1847 -96.3558 143° Southeast 148 170 7,100  Level Fort Worth Center
01:41PM 32.1525 -96.3269 143° Southeast 147 169 7,100  Level Fort Worth Center
01:42PM 32.1178 -96.2950 142° Southeast 156 180 7,100  Level Fort Worth Center
01:43PM 32.0842 -96.2656 143° Southeast 151 174 7,100  Level Fort Worth Center
01:44PM 32.0442 -96.2294 143° Southeast 151 174 7,100  Level Fort Worth Center
01:46PM 32.0114 -96.1986 141° Southeast 151 174 7,100  Level Fort Worth Center
01:47PM 31.9783 -96.1694 143° Southeast 150 173 7,100  Level Fort Worth Center
01:48PM 31.9464 -96.1397 142° Southeast 153 176 7,100  Level Fort Worth Center
01:49PM 31.9058 -96.1028 142° Southeast 154 177 7,100  Level Fort Worth Center
01:50PM 31.8706 -96.0719 143° Southeast 156 180 7,100  Level Fort Worth Center
01:51PM 31.8378 -96.0411 141° Southeast 151 174 7,100  Level Fort Worth Center
01:52PM 31.8008 -96.0097 144° Southeast 157 181 7,100  Level Fort Worth Center
01:53PM 31.7667 -95.9789 142° Southeast 156 180 7,100  Level Fort Worth Center
01:54PM 31.7328 -95.9475 142° Southeast 153 176 7,100  Level Fort Worth Center
01:55PM 31.6992 -95.9169 142° Southeast 157 181 7,100  Level Fort Worth Center
01:56PM 31.6664 -95.8867 142° Southeast 152 175 7,100  Level Fort Worth Center
01:57PM 31.6236 -95.8506 144° Southeast 154 177 7,100  Level Fort Worth Center
01:58PM 31.5892 -95.8203 143° Southeast 153 176 7,200  Climbing Houston Center
01:59PM 31.5561 -95.7889 141° Southeast 152 175 7,200  Level Houston Center
02:00PM 31.5206 -95.7597 145° Southeast 154 177 7,200  Level Houston Center
02:01PM 31.4861 -95.7292 143° Southeast 155 178 7,200 -60 Level Houston Center
02:02PM 31.4522 -95.6986 142° Southeast 155 178 7,100 -60 Descending Houston Center
02:03PM 31.4189 -95.6681 142° Southeast 153 176 7,100  Level Houston Center
02:04PM 31.3856 -95.6369 141° Southeast 153 176 7,100  Level Houston Center
02:05PM 31.3439 -95.6017 144° Southeast 153 176 7,100  Level Houston Center
02:06PM 31.3094 -95.5706 142° Southeast 156 180 7,100  Level Houston Center
02:07PM 31.2761 -95.5397 142° Southeast 154 177 7,100  Level Houston Center
02:08PM 31.2408 -95.5097 144° Southeast 156 180 7,100  Level Houston Center
02:09PM 31.2069 -95.4800 143° Southeast 155 178 7,100  Level Houston Center
02:10PM 31.1731 -95.4500 143° Southeast 153 176 7,100  Level Houston Center
02:11PM 31.1344 -95.4122 140° Southeast 151 174 7,100  Level Houston Center
02:12PM 31.1003 -95.3844 145° Southeast 150 173 7,100 -120 Level Houston Center
02:13PM 31.0656 -95.3531 142° Southeast 154 177 6,900 -360 Descending Houston Center
02:14PM 31.0289 -95.3203 143° Southeast 164 189 6,400 -540 Descending Houston Center
02:15PM 30.9911 -95.2889 145° Southeast 166 191 5,900 -540 Descending Houston Center
02:16PM 30.9494 -95.2528 143° Southeast 155 178 5,400 -540 Descending Houston Center
02:17PM 30.9175 -95.2247 143° Southeast 147 169 4,900 -540 Descending Houston Center
02:19PM 30.8850 -95.1947 142° Southeast 147 169 4,400 -540 Descending Houston Center
02:20PM 30.8519 -95.1672 144° Southeast 147 169 3,900 -540 Descending Houston Center
02:21PM 30.8206 -95.1386 142° Southeast 144 166 3,300 -600 Descending Houston Center
02:22PM 30.7897 -95.1106 142° Southeast 143 165 2,700 -840 Descending Houston Center
02:23PM 30.7514 -95.0789 145° Southeast 141 162 1,600 -1,080 Descending Houston Center